Bancroft, Idaho
Current Conditions -  °F | °C
As of 4:53 PM on Friday 28 Nov 2014 (Local Time) from KPIH Reporting Station
Clear Clear  
Wind Chill: 55°   Ceiling: Unl
Heat Index: 55°   Visibility: 10mi
Dew Point: 15°   Wind: 18mph
Humidity: 21%   Direction: 180°S
Pressure: 29.75"   Gusts: NA
Location:  42.72°N, 111.89°W
Report Text: KPIH 282353Z 18016KT 10SM CLR 13/M09 A2975 RMK AO2 SLP057 T01281094 10156 20128 56021
Loading
Personal Weather Stations






























Interactive Weather Map New forecast layout! Learn more

10-Day Weather Forecast

Advertisements
Track Severe Weather on mobile